sensor_id;sensor_type;location;lat;lon;timestamp;P1;durP1;ratioP1;P2;durP2;ratioP2
2173;SDS011;1093;51.424;11.764;2023-05-07T00:02:23;14.83;;;13.10;;
2173;SDS011;1093;51.424;11.764;2023-05-07T00:04:51;17.13;;;12.67;;
2173;SDS011;1093;51.424;11.764;2023-05-07T00:07:18;15.63;;;11.50;;
2173;SDS011;1093;51.424;11.764;2023-05-07T00:09:45;16.50;;;11.00;;
2173;SDS011;1093;51.424;11.764;2023-05-07T00:12:12;12.07;;;10.80;;
2173;SDS011;1093;51.424;11.764;2023-05-07T00:14:39;15.30;;;12.50;;
2173;SDS011;1093;51.424;11.764;2023-05-07T00:17:05;14.73;;;12.13;;
2173;SDS011;1093;51.424;11.764;2023-05-07T00:19:32;15.97;;;13.60;;
2173;SDS011;1093;51.424;11.764;2023-05-07T00:22:00;17.60;;;12.17;;
2173;SDS011;1093;51.424;11.764;2023-05-07T00:24:27;16.27;;;11.03;;
2173;SDS011;1093;51.424;11.764;2023-05-07T00:26:54;17.90;;;12.67;;
2173;SDS011;1093;51.424;11.764;2023-05-07T00:29:23;19.57;;;11.70;;
2173;SDS011;1093;51.424;11.764;2023-05-07T00:31:50;18.90;;;12.53;;
2173;SDS011;1093;51.424;11.764;2023-05-07T00:34:18;20.57;;;15.17;;
2173;SDS011;1093;51.424;11.764;2023-05-07T00:36:46;18.50;;;13.30;;
2173;SDS011;1093;51.424;11.764;2023-05-07T00:39:14;18.33;;;13.40;;
2173;SDS011;1093;51.424;11.764;2023-05-07T00:41:41;21.90;;;15.43;;
2173;SDS011;1093;51.424;11.764;2023-05-07T00:44:08;21.37;;;14.83;;
2173;SDS011;1093;51.424;11.764;2023-05-07T00:46:35;20.33;;;14.27;;
2173;SDS011;1093;51.424;11.764;2023-05-07T00:49:01;22.10;;;15.80;;
2173;SDS011;1093;51.424;11.764;2023-05-07T00:51:28;22.40;;;15.50;;
2173;SDS011;1093;51.424;11.764;2023-05-07T00:53:56;22.43;;;14.83;;
2173;SDS011;1093;51.424;11.764;2023-05-07T00:56:24;22.50;;;14.23;;
2173;SDS011;1093;51.424;11.764;2023-05-07T00:58:51;21.00;;;15.53;;
2173;SDS011;1093;51.424;11.764;2023-05-07T01:01:18;23.40;;;17.30;;
2173;SDS011;1093;51.424;11.764;2023-05-07T01:03:45;22.00;;;15.33;;
2173;SDS011;1093;51.424;11.764;2023-05-07T01:06:11;22.10;;;15.10;;
2173;SDS011;1093;51.424;11.764;2023-05-07T01:08:41;20.40;;;15.90;;
2173;SDS011;1093;51.424;11.764;2023-05-07T01:11:08;23.80;;;14.60;;
2173;SDS011;1093;51.424;11.764;2023-05-07T01:13:38;19.93;;;15.20;;
2173;SDS011;1093;51.424;11.764;2023-05-07T01:16:06;22.97;;;15.30;;
2173;SDS011;1093;51.424;11.764;2023-05-07T01:18:34;23.70;;;14.90;;
2173;SDS011;1093;51.424;11.764;2023-05-07T01:21:01;23.90;;;14.70;;
2173;SDS011;1093;51.424;11.764;2023-05-07T01:23:31;21.07;;;14.10;;
2173;SDS011;1093;51.424;11.764;2023-05-07T01:26:00;22.93;;;15.80;;
2173;SDS011;1093;51.424;11.764;2023-05-07T01:28:27;20.80;;;13.97;;
2173;SDS011;1093;51.424;11.764;2023-05-07T01:30:54;26.60;;;16.57;;
2173;SDS011;1093;51.424;11.764;2023-05-07T01:33:26;18.37;;;13.80;;
2173;SDS011;1093;51.424;11.764;2023-05-07T01:35:57;24.10;;;15.17;;
2173;SDS011;1093;51.424;11.764;2023-05-07T01:38:27;24.33;;;16.07;;
2173;SDS011;1093;51.424;11.764;2023-05-07T01:40:56;23.20;;;15.27;;
2173;SDS011;1093;51.424;11.764;2023-05-07T01:43:24;23.90;;;14.83;;
2173;SDS011;1093;51.424;11.764;2023-05-07T01:45:51;23.53;;;15.30;;
2173;SDS011;1093;51.424;11.764;2023-05-07T01:48:19;18.97;;;13.80;;
2173;SDS011;1093;51.424;11.764;2023-05-07T01:50:46;22.80;;;16.10;;
2173;SDS011;1093;51.424;11.764;2023-05-07T01:53:13;19.80;;;14.33;;
2173;SDS011;1093;51.424;11.764;2023-05-07T01:55:40;20.03;;;15.90;;
2173;SDS011;1093;51.424;11.764;2023-05-07T01:58:08;23.63;;;14.60;;
2173;SDS011;1093;51.424;11.764;2023-05-07T02:00:35;19.03;;;14.73;;
2173;SDS011;1093;51.424;11.764;2023-05-07T02:03:02;22.73;;;13.60;;
2173;SDS011;1093;51.424;11.764;2023-05-07T02:05:29;23.80;;;15.27;;
2173;SDS011;1093;51.424;11.764;2023-05-07T02:07:56;20.47;;;15.33;;
2173;SDS011;1093;51.424;11.764;2023-05-07T02:10:22;28.20;;;15.40;;
2173;SDS011;1093;51.424;11.764;2023-05-07T02:12:49;24.50;;;15.67;;
2173;SDS011;1093;51.424;11.764;2023-05-07T02:15:17;19.13;;;13.17;;
2173;SDS011;1093;51.424;11.764;2023-05-07T02:17:57;22.13;;;16.10;;
2173;SDS011;1093;51.424;11.764;2023-05-07T02:20:25;21.77;;;16.40;;
2173;SDS011;1093;51.424;11.764;2023-05-07T02:22:52;22.20;;;15.60;;
2173;SDS011;1093;51.424;11.764;2023-05-07T02:25:18;24.13;;;16.90;;
2173;SDS011;1093;51.424;11.764;2023-05-07T02:27:45;24.10;;;15.93;;
2173;SDS011;1093;51.424;11.764;2023-05-07T02:30:13;20.87;;;15.77;;
2173;SDS011;1093;51.424;11.764;2023-05-07T02:32:41;21.00;;;15.53;;
2173;SDS011;1093;51.424;11.764;2023-05-07T02:35:08;22.20;;;15.40;;
2173;SDS011;1093;51.424;11.764;2023-05-07T02:37:35;22.63;;;14.90;;
2173;SDS011;1093;51.424;11.764;2023-05-07T02:40:02;18.80;;;14.30;;
2173;SDS011;1093;51.424;11.764;2023-05-07T02:42:30;19.10;;;14.53;;
2173;SDS011;1093;51.424;11.764;2023-05-07T02:44:56;24.03;;;15.30;;
2173;SDS011;1093;51.424;11.764;2023-05-07T02:47:23;19.97;;;13.27;;
2173;SDS011;1093;51.424;11.764;2023-05-07T02:49:53;18.60;;;14.93;;
2173;SDS011;1093;51.424;11.764;2023-05-07T02:52:19;19.90;;;14.50;;
2173;SDS011;1093;51.424;11.764;2023-05-07T02:54:46;18.80;;;13.77;;
2173;SDS011;1093;51.424;11.764;2023-05-07T02:57:14;17.00;;;13.13;;
2173;SDS011;1093;51.424;11.764;2023-05-07T02:59:41;20.13;;;14.13;;
2173;SDS011;1093;51.424;11.764;2023-05-07T03:02:08;20.23;;;13.90;;
2173;SDS011;1093;51.424;11.764;2023-05-07T03:04:35;20.10;;;14.30;;
2173;SDS011;1093;51.424;11.764;2023-05-07T03:07:03;18.07;;;13.97;;
2173;SDS011;1093;51.424;11.764;2023-05-07T03:09:29;19.60;;;13.67;;
2173;SDS011;1093;51.424;11.764;2023-05-07T03:11:56;19.97;;;14.10;;
2173;SDS011;1093;51.424;11.764;2023-05-07T03:14:23;18.10;;;13.70;;
2173;SDS011;1093;51.424;11.764;2023-05-07T03:16:50;16.70;;;12.77;;
2173;SDS011;1093;51.424;11.764;2023-05-07T03:19:16;20.30;;;14.40;;
2173;SDS011;1093;51.424;11.764;2023-05-07T03:21:43;23.93;;;14.27;;
2173;SDS011;1093;51.424;11.764;2023-05-07T03:24:11;18.23;;;14.77;;
2173;SDS011;1093;51.424;11.764;2023-05-07T03:26:38;20.50;;;14.53;;
2173;SDS011;1093;51.424;11.764;2023-05-07T03:29:05;19.63;;;14.20;;
2173;SDS011;1093;51.424;11.764;2023-05-07T03:31:32;22.70;;;14.80;;
2173;SDS011;1093;51.424;11.764;2023-05-07T03:33:58;21.70;;;14.90;;
2173;SDS011;1093;51.424;11.764;2023-05-07T03:36:25;23.93;;;16.63;;
2173;SDS011;1093;51.424;11.764;2023-05-07T03:38:52;19.63;;;14.00;;
2173;SDS011;1093;51.424;11.764;2023-05-07T03:41:20;19.70;;;16.40;;
2173;SDS011;1093;51.424;11.764;2023-05-07T03:43:47;20.00;;;14.80;;
2173;SDS011;1093;51.424;11.764;2023-05-07T03:46:14;23.83;;;16.03;;
2173;SDS011;1093;51.424;11.764;2023-05-07T03:48:41;22.87;;;16.50;;
2173;SDS011;1093;51.424;11.764;2023-05-07T03:51:07;23.50;;;16.83;;
2173;SDS011;1093;51.424;11.764;2023-05-07T03:53:34;25.30;;;17.13;;
2173;SDS011;1093;51.424;11.764;2023-05-07T03:56:01;25.30;;;16.87;;
2173;SDS011;1093;51.424;11.764;2023-05-07T03:58:29;24.80;;;17.03;;
2173;SDS011;1093;51.424;11.764;2023-05-07T04:00:56;23.73;;;16.70;;
2173;SDS011;1093;51.424;11.764;2023-05-07T04:03:22;25.97;;;17.60;;
2173;SDS011;1093;51.424;11.764;2023-05-07T04:05:49;25.40;;;17.20;;
2173;SDS011;1093;51.424;11.764;2023-05-07T04:08:16;23.13;;;17.60;;
2173;SDS011;1093;51.424;11.764;2023-05-07T04:10:42;29.93;;;19.67;;
2173;SDS011;1093;51.424;11.764;2023-05-07T04:13:09;25.17;;;19.17;;
2173;SDS011;1093;51.424;11.764;2023-05-07T04:15:37;24.77;;;18.47;;
2173;SDS011;1093;51.424;11.764;2023-05-07T04:18:04;23.33;;;17.20;;
2173;SDS011;1093;51.424;11.764;2023-05-07T04:20:30;25.50;;;18.20;;
2173;SDS011;1093;51.424;11.764;2023-05-07T04:23:01;24.47;;;17.00;;
2173;SDS011;1093;51.424;11.764;2023-05-07T04:25:28;25.43;;;17.90;;
2173;SDS011;1093;51.424;11.764;2023-05-07T04:27:55;27.50;;;19.93;;
2173;SDS011;1093;51.424;11.764;2023-05-07T04:30:22;24.07;;;17.80;;
2173;SDS011;1093;51.424;11.764;2023-05-07T04:32:50;29.80;;;19.17;;
2173;SDS011;1093;51.424;11.764;2023-05-07T04:35:17;29.33;;;21.00;;
2173;SDS011;1093;51.424;11.764;2023-05-07T04:37:43;28.73;;;20.00;;
2173;SDS011;1093;51.424;11.764;2023-05-07T04:40:10;30.60;;;20.33;;
2173;SDS011;1093;51.424;11.764;2023-05-07T04:42:37;28.37;;;21.97;;
2173;SDS011;1093;51.424;11.764;2023-05-07T04:45:04;28.07;;;18.93;;
2173;SDS011;1093;51.424;11.764;2023-05-07T04:47:31;25.67;;;19.20;;
2173;SDS011;1093;51.424;11.764;2023-05-07T04:49:59;31.23;;;19.57;;
2173;SDS011;1093;51.424;11.764;2023-05-07T04:52:26;30.77;;;19.83;;
2173;SDS011;1093;51.424;11.764;2023-05-07T04:54:53;24.13;;;18.10;;
2173;SDS011;1093;51.424;11.764;2023-05-07T04:57:19;24.87;;;18.80;;
2173;SDS011;1093;51.424;11.764;2023-05-07T04:59:46;25.10;;;17.10;;
2173;SDS011;1093;51.424;11.764;2023-05-07T05:02:13;29.17;;;21.50;;
2173;SDS011;1093;51.424;11.764;2023-05-07T05:04:39;29.87;;;18.97;;
2173;SDS011;1093;51.424;11.764;2023-05-07T05:07:08;29.37;;;19.83;;
2173;SDS011;1093;51.424;11.764;2023-05-07T05:09:34;29.33;;;19.07;;
2173;SDS011;1093;51.424;11.764;2023-05-07T05:12:01;24.73;;;18.30;;
2173;SDS011;1093;51.424;11.764;2023-05-07T05:14:29;25.30;;;18.93;;
2173;SDS011;1093;51.424;11.764;2023-05-07T05:16:55;28.03;;;19.17;;
2173;SDS011;1093;51.424;11.764;2023-05-07T05:19:22;29.60;;;19.40;;
2173;SDS011;1093;51.424;11.764;2023-05-07T05:21:49;29.40;;;20.00;;
2173;SDS011;1093;51.424;11.764;2023-05-07T05:24:17;30.17;;;19.83;;
2173;SDS011;1093;51.424;11.764;2023-05-07T05:26:43;28.70;;;20.17;;
2173;SDS011;1093;51.424;11.764;2023-05-07T05:29:10;34.47;;;22.00;;
2173;SDS011;1093;51.424;11.764;2023-05-07T05:31:37;30.50;;;20.80;;
2173;SDS011;1093;51.424;11.764;2023-05-07T05:34:03;31.27;;;21.00;;
2173;SDS011;1093;51.424;11.764;2023-05-07T05:36:30;26.53;;;21.07;;
2173;SDS011;1093;51.424;11.764;2023-05-07T05:38:57;29.60;;;20.83;;
2173;SDS011;1093;51.424;11.764;2023-05-07T05:41:25;33.00;;;22.33;;
2173;SDS011;1093;51.424;11.764;2023-05-07T05:43:51;31.53;;;21.23;;
2173;SDS011;1093;51.424;11.764;2023-05-07T05:46:18;28.93;;;20.50;;
2173;SDS011;1093;51.424;11.764;2023-05-07T05:48:45;27.63;;;22.10;;
2173;SDS011;1093;51.424;11.764;2023-05-07T05:51:12;26.77;;;20.03;;
2173;SDS011;1093;51.424;11.764;2023-05-07T05:53:38;36.10;;;23.30;;
2173;SDS011;1093;51.424;11.764;2023-05-07T05:56:05;29.47;;;21.40;;
2173;SDS011;1093;51.424;11.764;2023-05-07T05:58:34;30.10;;;21.03;;
2173;SDS011;1093;51.424;11.764;2023-05-07T06:01:00;34.13;;;23.70;;
2173;SDS011;1093;51.424;11.764;2023-05-07T06:03:28;31.40;;;21.73;;
2173;SDS011;1093;51.424;11.764;2023-05-07T06:05:55;31.53;;;20.90;;
2173;SDS011;1093;51.424;11.764;2023-05-07T06:08:22;27.63;;;19.20;;
2173;SDS011;1093;51.424;11.764;2023-05-07T06:10:48;31.60;;;22.37;;
2173;SDS011;1093;51.424;11.764;2023-05-07T06:13:15;32.43;;;22.63;;
2173;SDS011;1093;51.424;11.764;2023-05-07T06:15:43;29.50;;;21.93;;
2173;SDS011;1093;51.424;11.764;2023-05-07T06:18:10;31.90;;;20.77;;
2173;SDS011;1093;51.424;11.764;2023-05-07T06:20:37;31.63;;;20.20;;
2173;SDS011;1093;51.424;11.764;2023-05-07T06:23:03;30.67;;;20.10;;
2173;SDS011;1093;51.424;11.764;2023-05-07T06:25:30;27.67;;;19.70;;
2173;SDS011;1093;51.424;11.764;2023-05-07T06:27:57;24.53;;;18.47;;
2173;SDS011;1093;51.424;11.764;2023-05-07T06:30:23;38.33;;;20.60;;
2173;SDS011;1093;51.424;11.764;2023-05-07T06:32:53;26.20;;;18.50;;
2173;SDS011;1093;51.424;11.764;2023-05-07T06:35:19;26.10;;;19.47;;
2173;SDS011;1093;51.424;11.764;2023-05-07T06:37:46;31.83;;;19.73;;
2173;SDS011;1093;51.424;11.764;2023-05-07T06:40:13;27.73;;;19.60;;
2173;SDS011;1093;51.424;11.764;2023-05-07T06:42:40;25.63;;;20.20;;
2173;SDS011;1093;51.424;11.764;2023-05-07T06:45:07;28.53;;;20.57;;
2173;SDS011;1093;51.424;11.764;2023-05-07T06:47:35;29.93;;;21.10;;
2173;SDS011;1093;51.424;11.764;2023-05-07T06:50:03;27.73;;;19.90;;
2173;SDS011;1093;51.424;11.764;2023-05-07T06:52:30;26.47;;;21.03;;
2173;SDS011;1093;51.424;11.764;2023-05-07T06:54:57;24.90;;;18.90;;
2173;SDS011;1093;51.424;11.764;2023-05-07T06:57:24;27.20;;;20.90;;
2173;SDS011;1093;51.424;11.764;2023-05-07T06:59:51;29.90;;;19.13;;
2173;SDS011;1093;51.424;11.764;2023-05-07T07:02:18;28.60;;;20.93;;
2173;SDS011;1093;51.424;11.764;2023-05-07T07:04:45;24.97;;;20.07;;
2173;SDS011;1093;51.424;11.764;2023-05-07T07:07:13;25.10;;;19.67;;
2173;SDS011;1093;51.424;11.764;2023-05-07T07:09:40;24.63;;;18.60;;
2173;SDS011;1093;51.424;11.764;2023-05-07T07:12:06;25.97;;;19.27;;
2173;SDS011;1093;51.424;11.764;2023-05-07T07:14:33;25.70;;;19.60;;
2173;SDS011;1093;51.424;11.764;2023-05-07T07:17:00;29.10;;;20.40;;
2173;SDS011;1093;51.424;11.764;2023-05-07T07:19:26;22.00;;;17.67;;
2173;SDS011;1093;51.424;11.764;2023-05-07T07:21:53;21.20;;;16.03;;
2173;SDS011;1093;51.424;11.764;2023-05-07T07:24:21;23.70;;;17.40;;
2173;SDS011;1093;51.424;11.764;2023-05-07T07:26:48;18.67;;;15.53;;
2173;SDS011;1093;51.424;11.764;2023-05-07T07:29:14;23.67;;;16.67;;
2173;SDS011;1093;51.424;11.764;2023-05-07T07:31:41;21.70;;;16.13;;
2173;SDS011;1093;51.424;11.764;2023-05-07T07:34:08;18.90;;;15.93;;
2173;SDS011;1093;51.424;11.764;2023-05-07T07:36:34;22.43;;;15.77;;
2173;SDS011;1093;51.424;11.764;2023-05-07T07:39:01;21.30;;;15.47;;
2173;SDS011;1093;51.424;11.764;2023-05-07T07:41:30;23.30;;;15.63;;
2173;SDS011;1093;51.424;11.764;2023-05-07T07:43:57;19.37;;;14.70;;
2173;SDS011;1093;51.424;11.764;2023-05-07T07:46:24;19.70;;;15.37;;
2173;SDS011;1093;51.424;11.764;2023-05-07T07:48:51;17.20;;;15.00;;
2173;SDS011;1093;51.424;11.764;2023-05-07T07:51:19;20.40;;;14.07;;
2173;SDS011;1093;51.424;11.764;2023-05-07T07:53:46;20.87;;;14.13;;
2173;SDS011;1093;51.424;11.764;2023-05-07T07:56:12;25.80;;;15.97;;
2173;SDS011;1093;51.424;11.764;2023-05-07T07:58:41;19.90;;;15.50;;
2173;SDS011;1093;51.424;11.764;2023-05-07T08:01:08;22.30;;;15.30;;
2173;SDS011;1093;51.424;11.764;2023-05-07T08:03:35;19.40;;;14.10;;
2173;SDS011;1093;51.424;11.764;2023-05-07T08:06:03;21.27;;;16.90;;
2173;SDS011;1093;51.424;11.764;2023-05-07T08:08:30;20.57;;;16.80;;
2173;SDS011;1093;51.424;11.764;2023-05-07T08:10:56;20.47;;;15.77;;
2173;SDS011;1093;51.424;11.764;2023-05-07T08:13:23;21.27;;;15.63;;
2173;SDS011;1093;51.424;11.764;2023-05-07T08:15:51;20.37;;;16.20;;
2173;SDS011;1093;51.424;11.764;2023-05-07T08:18:18;18.70;;;14.87;;
2173;SDS011;1093;51.424;11.764;2023-05-07T08:20:45;18.87;;;13.40;;
2173;SDS011;1093;51.424;11.764;2023-05-07T08:23:12;20.60;;;13.17;;
2173;SDS011;1093;51.424;11.764;2023-05-07T08:25:39;19.10;;;13.90;;
2173;SDS011;1093;51.424;11.764;2023-05-07T08:28:07;19.03;;;14.57;;
2173;SDS011;1093;51.424;11.764;2023-05-07T08:30:34;19.63;;;14.13;;
2173;SDS011;1093;51.424;11.764;2023-05-07T08:33:02;18.57;;;14.87;;
2173;SDS011;1093;51.424;11.764;2023-05-07T08:35:29;20.20;;;13.50;;
2173;SDS011;1093;51.424;11.764;2023-05-07T08:37:55;18.40;;;15.20;;
2173;SDS011;1093;51.424;11.764;2023-05-07T08:40:22;19.07;;;13.77;;
2173;SDS011;1093;51.424;11.764;2023-05-07T08:42:52;18.93;;;13.50;;
2173;SDS011;1093;51.424;11.764;2023-05-07T08:45:19;14.77;;;12.97;;
2173;SDS011;1093;51.424;11.764;2023-05-07T08:47:47;18.00;;;13.70;;
2173;SDS011;1093;51.424;11.764;2023-05-07T08:50:20;17.47;;;13.30;;
2173;SDS011;1093;51.424;11.764;2023-05-07T08:52:47;20.33;;;15.40;;
2173;SDS011;1093;51.424;11.764;2023-05-07T08:55:13;20.10;;;13.87;;
2173;SDS011;1093;51.424;11.764;2023-05-07T08:57:41;15.30;;;12.60;;
2173;SDS011;1093;51.424;11.764;2023-05-07T09:00:08;16.07;;;13.27;;
2173;SDS011;1093;51.424;11.764;2023-05-07T09:02:36;15.53;;;11.93;;
2173;SDS011;1093;51.424;11.764;2023-05-07T09:05:03;15.80;;;13.43;;
2173;SDS011;1093;51.424;11.764;2023-05-07T09:07:31;14.33;;;12.67;;
2173;SDS011;1093;51.424;11.764;2023-05-07T09:09:58;13.90;;;11.40;;
2173;SDS011;1093;51.424;11.764;2023-05-07T09:12:28;15.13;;;11.47;;
2173;SDS011;1093;51.424;11.764;2023-05-07T09:14:55;14.90;;;11.87;;
2173;SDS011;1093;51.424;11.764;2023-05-07T09:17:22;19.90;;;14.10;;
2173;SDS011;1093;51.424;11.764;2023-05-07T09:19:48;15.53;;;13.57;;
2173;SDS011;1093;51.424;11.764;2023-05-07T09:22:15;17.07;;;13.70;;
2173;SDS011;1093;51.424;11.764;2023-05-07T09:24:47;13.27;;;11.90;;
2173;SDS011;1093;51.424;11.764;2023-05-07T09:27:15;13.70;;;12.00;;
2173;SDS011;1093;51.424;11.764;2023-05-07T09:29:42;14.50;;;11.73;;
2173;SDS011;1093;51.424;11.764;2023-05-07T09:32:09;14.47;;;12.60;;
2173;SDS011;1093;51.424;11.764;2023-05-07T09:34:36;13.17;;;11.83;;
2173;SDS011;1093;51.424;11.764;2023-05-07T09:37:03;14.30;;;12.63;;
2173;SDS011;1093;51.424;11.764;2023-05-07T09:39:40;16.20;;;12.13;;
2173;SDS011;1093;51.424;11.764;2023-05-07T09:42:09;12.43;;;11.23;;
2173;SDS011;1093;51.424;11.764;2023-05-07T09:44:37;14.10;;;12.60;;
2173;SDS011;1093;51.424;11.764;2023-05-07T09:47:04;14.57;;;13.17;;
2173;SDS011;1093;51.424;11.764;2023-05-07T09:49:33;12.53;;;11.17;;
2173;SDS011;1093;51.424;11.764;2023-05-07T09:52:02;13.30;;;10.77;;
2173;SDS011;1093;51.424;11.764;2023-05-07T09:54:31;13.67;;;11.97;;
2173;SDS011;1093;51.424;11.764;2023-05-07T09:56:59;11.27;;;10.10;;
2173;SDS011;1093;51.424;11.764;2023-05-07T09:59:29;13.63;;;12.23;;
2173;SDS011;1093;51.424;11.764;2023-05-07T10:01:59;11.10;;;10.00;;
2173;SDS011;1093;51.424;11.764;2023-05-07T10:04:27;12.73;;;11.43;;
2173;SDS011;1093;51.424;11.764;2023-05-07T10:06:54;14.53;;;11.07;;
2173;SDS011;1093;51.424;11.764;2023-05-07T10:09:22;11.53;;;9.80;;
2173;SDS011;1093;51.424;11.764;2023-05-07T10:11:50;10.90;;;9.80;;
2173;SDS011;1093;51.424;11.764;2023-05-07T10:14:17;12.50;;;9.67;;
2173;SDS011;1093;51.424;11.764;2023-05-07T10:16:48;11.40;;;10.03;;
2173;SDS011;1093;51.424;11.764;2023-05-07T10:19:15;10.40;;;9.40;;
2173;SDS011;1093;51.424;11.764;2023-05-07T10:21:44;10.17;;;9.17;;
2173;SDS011;1093;51.424;11.764;2023-05-07T10:24:19;10.57;;;9.30;;
2173;SDS011;1093;51.424;11.764;2023-05-07T10:26:49;10.60;;;9.50;;
2173;SDS011;1093;51.424;11.764;2023-05-07T10:29:20;11.00;;;9.87;;
2173;SDS011;1093;51.424;11.764;2023-05-07T10:31:57;11.70;;;9.90;;
2173;SDS011;1093;51.424;11.764;2023-05-07T10:34:34;11.47;;;10.27;;
2173;SDS011;1093;51.424;11.764;2023-05-07T10:37:03;12.67;;;10.70;;
2173;SDS011;1093;51.424;11.764;2023-05-07T10:39:30;11.40;;;9.70;;
2173;SDS011;1093;51.424;11.764;2023-05-07T10:42:06;11.50;;;9.93;;
2173;SDS011;1093;51.424;11.764;2023-05-07T10:44:34;12.30;;;10.50;;
2173;SDS011;1093;51.424;11.764;2023-05-07T10:47:07;10.87;;;9.80;;
2173;SDS011;1093;51.424;11.764;2023-05-07T10:49:36;10.63;;;9.53;;
2173;SDS011;1093;51.424;11.764;2023-05-07T10:52:23;11.43;;;10.33;;
2173;SDS011;1093;51.424;11.764;2023-05-07T10:57:46;12.97;;;11.67;;
2173;SDS011;1093;51.424;11.764;2023-05-07T11:03:08;12.47;;;11.20;;
2173;SDS011;1093;51.424;11.764;2023-05-07T11:05:36;12.10;;;10.90;;
2173;SDS011;1093;51.424;11.764;2023-05-07T11:08:04;13.47;;;11.23;;
2173;SDS011;1093;51.424;11.764;2023-05-07T11:10:50;15.23;;;12.20;;
2173;SDS011;1093;51.424;11.764;2023-05-07T11:13:19;13.13;;;11.80;;
2173;SDS011;1093;51.424;11.764;2023-05-07T11:16:19;13.67;;;12.20;;
2173;SDS011;1093;51.424;11.764;2023-05-07T11:18:49;16.57;;;13.00;;
2173;SDS011;1093;51.424;11.764;2023-05-07T11:21:31;13.07;;;11.77;;
2173;SDS011;1093;51.424;11.764;2023-05-07T11:23:59;14.87;;;12.83;;
2173;SDS011;1093;51.424;11.764;2023-05-07T11:26:28;14.60;;;12.80;;
2173;SDS011;1093;51.424;11.764;2023-05-07T11:28:56;13.10;;;11.80;;
2173;SDS011;1093;51.424;11.764;2023-05-07T11:31:25;15.97;;;12.00;;
2173;SDS011;1093;51.424;11.764;2023-05-07T11:33:55;12.77;;;11.30;;
2173;SDS011;1093;51.424;11.764;2023-05-07T11:36:22;14.53;;;11.43;;
2173;SDS011;1093;51.424;11.764;2023-05-07T11:38:50;12.10;;;10.83;;
2173;SDS011;1093;51.424;11.764;2023-05-07T11:41:16;12.30;;;10.13;;
2173;SDS011;1093;51.424;11.764;2023-05-07T11:43:54;11.70;;;10.50;;
2173;SDS011;1093;51.424;11.764;2023-05-07T11:46:22;23.33;;;10.77;;
2173;SDS011;1093;51.424;11.764;2023-05-07T11:48:49;9.90;;;8.90;;
2173;SDS011;1093;51.424;11.764;2023-05-07T11:51:20;11.13;;;10.03;;
2173;SDS011;1093;51.424;11.764;2023-05-07T11:53:48;12.17;;;10.37;;
2173;SDS011;1093;51.424;11.764;2023-05-07T11:56:16;14.23;;;10.33;;
2173;SDS011;1093;51.424;11.764;2023-05-07T11:58:45;10.43;;;9.33;;
2173;SDS011;1093;51.424;11.764;2023-05-07T12:01:13;9.90;;;8.97;;
2173;SDS011;1093;51.424;11.764;2023-05-07T12:03:41;10.80;;;8.33;;
2173;SDS011;1093;51.424;11.764;2023-05-07T12:06:10;8.87;;;8.00;;
2173;SDS011;1093;51.424;11.764;2023-05-07T12:08:39;9.23;;;8.03;;
2173;SDS011;1093;51.424;11.764;2023-05-07T12:11:07;12.33;;;8.50;;
2173;SDS011;1093;51.424;11.764;2023-05-07T12:13:36;8.53;;;7.63;;
2173;SDS011;1093;51.424;11.764;2023-05-07T12:16:03;10.90;;;9.70;;
2173;SDS011;1093;51.424;11.764;2023-05-07T12:18:32;11.20;;;9.53;;
2173;SDS011;1093;51.424;11.764;2023-05-07T12:21:00;17.33;;;10.93;;
2173;SDS011;1093;51.424;11.764;2023-05-07T12:23:27;11.37;;;9.83;;
2173;SDS011;1093;51.424;11.764;2023-05-07T12:25:56;12.50;;;10.60;;
2173;SDS011;1093;51.424;11.764;2023-05-07T12:28:23;11.13;;;9.10;;
2173;SDS011;1093;51.424;11.764;2023-05-07T12:30:50;11.33;;;10.23;;
2173;SDS011;1093;51.424;11.764;2023-05-07T12:33:18;12.20;;;10.90;;
2173;SDS011;1093;51.424;11.764;2023-05-07T12:35:49;11.60;;;10.50;;
2173;SDS011;1093;51.424;11.764;2023-05-07T12:38:17;10.90;;;9.90;;
2173;SDS011;1093;51.424;11.764;2023-05-07T12:40:45;12.40;;;11.10;;
2173;SDS011;1093;51.424;11.764;2023-05-07T12:43:17;13.47;;;11.27;;
2173;SDS011;1093;51.424;11.764;2023-05-07T12:45:48;14.17;;;11.77;;
2173;SDS011;1093;51.424;11.764;2023-05-07T12:48:16;13.03;;;11.67;;
2173;SDS011;1093;51.424;11.764;2023-05-07T12:50:43;12.40;;;11.10;;
2173;SDS011;1093;51.424;11.764;2023-05-07T12:53:11;11.67;;;10.40;;
2173;SDS011;1093;51.424;11.764;2023-05-07T12:55:42;11.47;;;10.10;;
2173;SDS011;1093;51.424;11.764;2023-05-07T12:58:15;12.60;;;10.30;;
2173;SDS011;1093;51.424;11.764;2023-05-07T13:00:44;11.17;;;10.07;;
2173;SDS011;1093;51.424;11.764;2023-05-07T13:03:11;9.93;;;9.03;;
2173;SDS011;1093;51.424;11.764;2023-05-07T13:05:38;10.47;;;9.37;;
2173;SDS011;1093;51.424;11.764;2023-05-07T13:08:05;10.93;;;9.80;;
2173;SDS011;1093;51.424;11.764;2023-05-07T13:10:34;10.00;;;9.03;;
2173;SDS011;1093;51.424;11.764;2023-05-07T13:13:01;12.53;;;10.30;;
2173;SDS011;1093;51.424;11.764;2023-05-07T13:15:30;10.40;;;8.53;;
2173;SDS011;1093;51.424;11.764;2023-05-07T13:17:57;10.10;;;9.10;;
2173;SDS011;1093;51.424;11.764;2023-05-07T13:20:23;11.30;;;8.97;;
2173;SDS011;1093;51.424;11.764;2023-05-07T13:22:50;14.93;;;10.90;;
2173;SDS011;1093;51.424;11.764;2023-05-07T13:25:17;11.67;;;9.87;;
2173;SDS011;1093;51.424;11.764;2023-05-07T13:27:44;10.90;;;9.50;;
2173;SDS011;1093;51.424;11.764;2023-05-07T13:30:11;12.47;;;11.20;;
2173;SDS011;1093;51.424;11.764;2023-05-07T13:32:39;15.87;;;11.83;;
2173;SDS011;1093;51.424;11.764;2023-05-07T13:35:07;13.17;;;11.53;;
2173;SDS011;1093;51.424;11.764;2023-05-07T13:37:34;13.70;;;10.60;;
2173;SDS011;1093;51.424;11.764;2023-05-07T13:40:01;12.80;;;10.83;;
2173;SDS011;1093;51.424;11.764;2023-05-07T13:42:28;10.47;;;9.37;;
2173;SDS011;1093;51.424;11.764;2023-05-07T13:44:55;12.13;;;10.60;;
2173;SDS011;1093;51.424;11.764;2023-05-07T13:47:22;11.13;;;10.03;;
2173;SDS011;1093;51.424;11.764;2023-05-07T13:49:51;11.67;;;10.47;;
2173;SDS011;1093;51.424;11.764;2023-05-07T13:52:17;12.10;;;10.63;;
2173;SDS011;1093;51.424;11.764;2023-05-07T13:54:45;13.77;;;11.23;;
2173;SDS011;1093;51.424;11.764;2023-05-07T13:57:11;11.13;;;10.00;;
2173;SDS011;1093;51.424;11.764;2023-05-07T13:59:38;12.17;;;9.27;;
2173;SDS011;1093;51.424;11.764;2023-05-07T14:02:05;11.10;;;8.50;;
2173;SDS011;1093;51.424;11.764;2023-05-07T14:04:34;9.23;;;8.33;;
2173;SDS011;1093;51.424;11.764;2023-05-07T14:07:02;12.00;;;9.30;;
2173;SDS011;1093;51.424;11.764;2023-05-07T14:09:29;10.23;;;9.17;;
2173;SDS011;1093;51.424;11.764;2023-05-07T14:11:55;9.63;;;7.73;;
2173;SDS011;1093;51.424;11.764;2023-05-07T14:14:22;8.20;;;7.20;;
2173;SDS011;1093;51.424;11.764;2023-05-07T14:16:49;7.53;;;6.73;;
2173;SDS011;1093;51.424;11.764;2023-05-07T14:19:16;8.13;;;7.43;;
2173;SDS011;1093;51.424;11.764;2023-05-07T14:21:42;9.33;;;7.93;;
2173;SDS011;1093;51.424;11.764;2023-05-07T14:24:11;8.23;;;7.43;;
2173;SDS011;1093;51.424;11.764;2023-05-07T14:26:37;7.60;;;6.90;;
2173;SDS011;1093;51.424;11.764;2023-05-07T14:29:04;8.63;;;7.20;;
2173;SDS011;1093;51.424;11.764;2023-05-07T14:31:31;8.23;;;7.40;;
2173;SDS011;1093;51.424;11.764;2023-05-07T14:33:58;9.00;;;6.93;;
2173;SDS011;1093;51.424;11.764;2023-05-07T14:36:25;7.70;;;6.90;;
2173;SDS011;1093;51.424;11.764;2023-05-07T14:38:52;10.10;;;7.30;;
2173;SDS011;1093;51.424;11.764;2023-05-07T14:41:21;12.40;;;7.43;;
2173;SDS011;1093;51.424;11.764;2023-05-07T14:43:48;7.73;;;6.63;;
2173;SDS011;1093;51.424;11.764;2023-05-07T14:46:16;9.10;;;8.10;;
2173;SDS011;1093;51.424;11.764;2023-05-07T14:48:43;8.20;;;7.40;;